createdAt,value
2018-12-21T00:00:29.388Z,11.57
2018-12-21T00:03:01.009Z,10.75
2018-12-21T00:05:35.420Z,7.22
2018-12-21T00:08:06.831Z,5.35
2018-12-21T00:10:41.368Z,4.75
2018-12-21T00:13:15.309Z,6.40
2018-12-21T00:15:46.730Z,5.20
2018-12-21T00:18:21.194Z,4.03
2018-12-21T00:20:52.623Z,2.90
2018-12-21T00:23:26.914Z,3.22
2018-12-21T00:25:58.452Z,3.55
2018-12-21T00:28:32.706Z,3.45
2018-12-21T00:31:12.123Z,4.15
2018-12-21T00:33:49.307Z,5.05
2018-12-21T00:36:26.160Z,4.25
2018-12-21T00:39:05.419Z,3.70
2018-12-21T00:41:36.556Z,4.25
2018-12-21T00:44:14.639Z,4.30
2018-12-21T00:46:49.350Z,5.17
2018-12-21T00:49:22.596Z,4.30
2018-12-21T00:51:54.299Z,3.20
2018-12-21T00:54:26.215Z,3.15
2018-12-21T00:56:58.349Z,4.50
2018-12-21T00:59:28.190Z,4.35
2018-12-21T01:02:02.953Z,4.00
2018-12-21T01:04:31.161Z,4.95
2018-12-21T01:06:59.764Z,2.60
2018-12-21T01:09:33.997Z,2.60
2018-12-21T01:12:06.078Z,2.50
2018-12-21T01:14:37.508Z,3.00
2018-12-21T01:17:09.389Z,2.42
2018-12-21T01:19:41.397Z,2.40
2018-12-21T01:22:15.665Z,2.80
2018-12-21T01:24:47.099Z,3.08
2018-12-21T01:27:19.784Z,2.52
2018-12-21T01:29:53.463Z,2.45
2018-12-21T01:32:27.491Z,1.80
2018-12-21T01:35:01.817Z,1.82
2018-12-21T01:37:33.065Z,2.10
2018-12-21T01:40:05.548Z,2.05
2018-12-21T01:42:39.262Z,2.12
2018-12-21T01:45:13.055Z,2.15
2018-12-21T01:47:44.665Z,2.08
2018-12-21T01:50:18.908Z,2.20
2018-12-21T01:52:52.666Z,1.90
2018-12-21T01:55:24.466Z,2.40
2018-12-21T01:57:56.090Z,2.22
2018-12-21T02:00:28.260Z,2.50
2018-12-21T02:03:00.175Z,3.00
2018-12-21T02:05:34.746Z,2.70
2018-12-21T02:08:06.368Z,2.10
2018-12-21T02:10:40.524Z,2.52
2018-12-21T02:13:12.217Z,2.58
2018-12-21T02:15:44.340Z,2.83
2018-12-21T02:18:16.164Z,3.05
2018-12-21T02:20:45.963Z,2.65
2018-12-21T02:23:20.500Z,2.33
2018-12-21T02:25:52.255Z,2.60
2018-12-21T02:28:24.076Z,2.10
2018-12-21T02:30:56.116Z,2.70
2018-12-21T02:33:30.367Z,2.65
2018-12-21T02:36:04.376Z,2.40
2018-12-21T02:38:35.743Z,2.30
2018-12-21T02:41:07.372Z,2.33
2018-12-21T02:43:41.861Z,2.58
2018-12-21T02:46:13.436Z,2.87
2018-12-21T02:48:45.596Z,2.70
2018-12-21T02:51:15.622Z,2.70
2018-12-21T02:53:45.403Z,2.17
2018-12-21T02:56:19.692Z,1.90
2018-12-21T02:58:51.910Z,2.30
2018-12-21T03:01:26.587Z,2.25
2018-12-21T03:03:57.886Z,2.35
2018-12-21T03:06:29.706Z,2.25
2018-12-21T03:09:01.697Z,2.42
2018-12-21T03:11:33.806Z,2.35
2018-12-21T03:14:05.938Z,2.10
2018-12-21T03:16:37.951Z,2.00
2018-12-21T03:19:09.960Z,2.17
2018-12-21T03:21:41.992Z,2.27
2018-12-21T03:24:16.621Z,2.10
2018-12-21T03:26:44.999Z,2.05
2018-12-21T03:29:16.504Z,2.15
2018-12-21T03:31:59.554Z,2.20
2018-12-21T03:34:33.802Z,2.10
2018-12-21T03:37:07.529Z,2.80
2018-12-21T03:39:38.852Z,2.90
2018-12-21T03:42:11.132Z,2.30
2018-12-21T03:44:45.284Z,2.67
2018-12-21T03:47:19.147Z,2.37
2018-12-21T03:49:50.792Z,2.65
2018-12-21T03:52:24.553Z,2.60
2018-12-21T03:54:56.688Z,2.40
2018-12-21T03:57:26.509Z,2.50
2018-12-21T03:59:56.619Z,2.10
2018-12-21T04:02:30.961Z,2.40
2018-12-21T04:05:02.847Z,2.40
2018-12-21T04:07:34.502Z,2.52
2018-12-21T04:10:08.741Z,2.25
2018-12-21T04:12:40.248Z,2.60
2018-12-21T04:15:12.196Z,3.30
2018-12-21T04:17:44.000Z,2.50
2018-12-21T04:20:14.263Z,2.83
2018-12-21T04:22:46.088Z,3.25
2018-12-21T04:25:18.164Z,4.20
2018-12-21T04:27:52.514Z,2.90
2018-12-21T04:30:24.750Z,2.70
2018-12-21T04:32:56.626Z,2.75
2018-12-21T04:35:28.574Z,5.55
2018-12-21T04:38:00.593Z,3.08
2018-12-21T04:40:32.514Z,2.30
2018-12-21T04:43:04.454Z,1.98
2018-12-21T04:45:36.393Z,1.90
2018-12-21T04:48:10.438Z,2.17
2018-12-21T04:50:44.472Z,1.90
2018-12-21T04:53:15.877Z,1.62
2018-12-21T04:55:48.024Z,3.10
2018-12-21T04:58:19.845Z,3.30
2018-12-21T05:00:51.733Z,1.70
2018-12-21T05:03:23.859Z,1.98
2018-12-21T05:05:58.459Z,3.15
2018-12-21T05:08:29.930Z,5.10
2018-12-21T05:11:02.961Z,4.45
2018-12-21T05:13:37.525Z,7.83
2018-12-21T05:16:08.959Z,8.33
2018-12-21T05:18:41.478Z,7.15
2018-12-21T05:21:13.304Z,6.75
2018-12-21T05:23:47.927Z,4.97
2018-12-21T05:26:33.169Z,2.95
2018-12-21T05:29:04.824Z,2.30
2018-12-21T05:31:37.939Z,2.60
2018-12-21T05:34:09.786Z,3.00
2018-12-21T05:36:44.610Z,2.70
2018-12-21T05:39:18.848Z,2.50
2018-12-21T05:41:51.290Z,2.40
2018-12-21T05:44:23.697Z,1.92
2018-12-21T05:46:57.699Z,2.22
2018-12-21T05:49:44.243Z,2.40
2018-12-21T05:55:18.871Z,3.10
2018-12-21T05:57:59.581Z,3.50
2018-12-21T06:00:34.114Z,3.00
2018-12-21T06:03:05.743Z,3.17
2018-12-21T06:05:35.485Z,2.90
2018-12-21T06:08:10.045Z,3.10
2018-12-21T06:10:40.304Z,2.50
2018-12-21T06:13:11.940Z,2.60
2018-12-21T06:15:43.800Z,2.98
2018-12-21T06:18:18.047Z,2.98
2018-12-21T06:20:49.812Z,2.50
2018-12-21T06:23:23.966Z,3.00
2018-12-21T06:25:56.412Z,2.17
2018-12-21T06:28:28.235Z,2.58
2018-12-21T06:30:58.172Z,2.05
2018-12-21T06:33:29.911Z,2.17
2018-12-21T06:36:04.340Z,1.87
2018-12-21T06:38:35.689Z,1.70
2018-12-21T06:41:07.929Z,1.90
2018-12-21T06:43:39.597Z,2.05
2018-12-21T06:46:14.258Z,2.22
2018-12-21T06:48:45.692Z,1.87
2018-12-21T06:51:18.437Z,1.95
2018-12-21T06:53:50.611Z,1.70
2018-12-21T06:56:22.699Z,1.85
2018-12-21T06:58:54.865Z,1.70
2018-12-21T07:01:26.844Z,1.95
2018-12-21T07:04:01.402Z,1.95
2018-12-21T07:06:33.497Z,1.80
2018-12-21T07:09:07.028Z,1.77
2018-12-21T07:11:41.917Z,2.05
2018-12-21T07:14:13.578Z,2.00
2018-12-21T07:16:51.761Z,1.80
2018-12-21T07:19:23.320Z,2.17
2018-12-21T07:21:55.182Z,2.02
2018-12-21T07:24:27.613Z,2.00
2018-12-21T07:27:00.069Z,1.95
2018-12-21T07:29:32.121Z,2.15
2018-12-21T07:32:06.400Z,2.10
2018-12-21T07:34:37.828Z,2.00
2018-12-21T07:37:09.869Z,2.90
2018-12-21T07:39:44.191Z,1.98
2018-12-21T07:42:16.368Z,2.00
2018-12-21T07:44:48.259Z,1.80
2018-12-21T07:47:20.061Z,1.80
2018-12-21T07:49:54.462Z,2.15
2018-12-21T07:52:25.858Z,1.85
2018-12-21T07:55:00.584Z,1.75
2018-12-21T07:57:35.439Z,2.00
2018-12-21T08:00:10.995Z,1.95
2018-12-21T08:02:42.598Z,1.95
2018-12-21T08:05:17.011Z,2.10
2018-12-21T08:07:48.688Z,1.85
2018-12-21T08:10:23.341Z,2.00
2018-12-21T08:12:55.843Z,1.77
2018-12-21T08:15:30.321Z,2.50
2018-12-21T08:18:05.002Z,2.40
2018-12-21T08:20:36.266Z,2.60
2018-12-21T08:23:10.745Z,2.10
2018-12-21T08:25:40.195Z,2.30
2018-12-21T08:28:13.378Z,2.20
2018-12-21T08:30:45.473Z,2.37
2018-12-21T08:33:14.052Z,1.92
2018-12-21T08:35:42.217Z,2.40
2018-12-21T08:38:28.544Z,2.40
2018-12-21T08:41:00.021Z,2.65
2018-12-21T08:43:34.271Z,2.20
2018-12-21T08:46:10.184Z,2.33
2018-12-21T08:48:44.270Z,2.27
2018-12-21T08:51:16.303Z,2.30
2018-12-21T08:53:52.494Z,2.60
2018-12-21T08:56:22.292Z,2.40
2018-12-21T08:58:54.328Z,2.20
2018-12-21T09:01:29.048Z,2.40
2018-12-21T09:04:04.598Z,2.37
2018-12-21T09:06:52.205Z,2.30
2018-12-21T09:09:27.000Z,3.08
2018-12-21T09:11:59.040Z,2.52
2018-12-21T09:14:33.080Z,2.80
2018-12-21T09:17:10.951Z,2.20
2018-12-21T09:19:45.630Z,2.33
2018-12-21T09:22:20.184Z,2.00
2018-12-21T09:24:54.545Z,2.00
2018-12-21T09:27:24.255Z,2.10
2018-12-21T09:29:56.423Z,1.87
2018-12-21T09:32:30.919Z,2.33
2018-12-21T09:35:02.372Z,2.20
2018-12-21T09:37:36.841Z,2.17
2018-12-21T09:40:11.849Z,2.05
2018-12-21T09:42:46.373Z,2.02
2018-12-21T09:45:16.146Z,2.25
2018-12-21T09:47:47.750Z,1.95
2018-12-21T09:50:19.972Z,2.55
2018-12-21T09:52:49.555Z,1.80
2018-12-21T09:55:24.224Z,2.20
2018-12-21T09:57:58.907Z,1.83
2018-12-21T10:00:30.517Z,1.90
2018-12-21T10:03:02.365Z,1.90
2018-12-21T10:05:34.499Z,1.70
2018-12-21T10:08:08.856Z,2.00
2018-12-21T10:10:42.768Z,1.90
2018-12-21T10:13:18.083Z,2.00
2018-12-21T10:15:56.524Z,2.17
2018-12-21T10:18:28.050Z,1.80
2018-12-21T10:21:04.299Z,1.80
2018-12-21T10:23:38.345Z,1.63
2018-12-21T10:26:12.852Z,2.10
2018-12-21T10:28:44.245Z,2.00
2018-12-21T10:31:28.961Z,1.70
2018-12-21T10:33:58.884Z,2.07
2018-12-21T10:36:30.962Z,1.70
2018-12-21T10:39:03.881Z,2.27
2018-12-21T10:41:42.264Z,1.50
2018-12-21T10:44:16.473Z,1.80
2018-12-21T10:46:48.536Z,1.83
2018-12-21T10:49:20.510Z,1.40
2018-12-21T10:51:52.464Z,1.67
2018-12-21T10:54:26.993Z,1.57
2018-12-21T10:57:06.554Z,1.70
2018-12-21T10:59:43.399Z,1.73
2018-12-21T11:02:15.288Z,1.53
2018-12-21T11:04:49.832Z,1.77
2018-12-21T11:07:21.960Z,2.00
2018-12-21T11:09:53.493Z,1.60
2018-12-21T11:12:28.000Z,1.63
2018-12-21T11:14:57.801Z,2.00
2018-12-21T11:17:26.938Z,1.70
2018-12-21T11:20:01.319Z,1.50
2018-12-21T11:22:36.543Z,1.87
2018-12-21T11:31:18.035Z,1.90
2018-12-21T11:33:52.311Z,1.80
2018-12-21T11:36:26.670Z,1.60
2018-12-21T11:38:57.936Z,2.00
2018-12-21T11:41:26.335Z,1.50
2018-12-21T11:44:13.021Z,1.70
2018-12-21T11:46:46.951Z,1.50
2018-12-21T11:49:21.117Z,1.80
2018-12-21T11:51:54.840Z,1.60
2018-12-21T11:54:26.892Z,1.57
2018-12-21T11:57:04.715Z,1.50
2018-12-21T11:59:44.844Z,1.80
2018-12-21T12:02:19.431Z,2.40
2018-12-21T12:04:50.856Z,1.60
2018-12-21T12:10:20.084Z,2.10
2018-12-21T12:12:51.609Z,2.00
2018-12-21T12:15:25.669Z,1.63
2018-12-21T12:17:57.276Z,1.83
2018-12-21T12:20:29.066Z,3.43
2018-12-21T12:23:00.750Z,4.73
2018-12-21T12:25:47.680Z,3.17
2018-12-21T12:28:15.963Z,2.30
2018-12-21T12:30:44.180Z,3.90
2018-12-21T12:33:17.782Z,2.70
2018-12-21T12:35:46.202Z,3.80
2018-12-21T12:38:14.443Z,3.07
2018-12-21T12:40:42.813Z,5.90
2018-12-21T12:43:17.785Z,3.10
2018-12-21T12:45:46.449Z,3.40
2018-12-21T12:48:14.609Z,5.50
2018-12-21T12:50:42.821Z,5.27
2018-12-21T12:53:11.020Z,2.13
2018-12-21T12:55:39.849Z,2.03
2018-12-21T12:58:08.001Z,2.73
2018-12-21T13:00:36.134Z,2.07
2018-12-21T13:03:04.411Z,1.50
2018-12-21T13:05:32.628Z,1.70
2018-12-21T13:08:00.740Z,1.50
2018-12-21T13:10:29.030Z,1.70
2018-12-21T13:13:03.248Z,2.17
2018-12-21T13:15:35.005Z,2.00
2018-12-21T13:18:06.909Z,2.27
2018-12-21T13:20:43.328Z,2.40
2018-12-21T13:23:11.532Z,2.57
2018-12-21T13:25:39.850Z,2.60
2018-12-21T13:28:08.044Z,3.10
2018-12-21T13:30:36.185Z,2.40
2018-12-21T13:33:04.504Z,2.00
2018-12-21T13:35:32.726Z,2.30
2018-12-21T13:38:00.945Z,2.53
2018-12-21T13:40:29.152Z,1.77
2018-12-21T13:42:57.298Z,1.90
2018-12-21T13:45:25.544Z,1.93
2018-12-21T13:47:53.736Z,2.10
2018-12-21T13:50:23.076Z,3.53
2018-12-21T13:56:00.262Z,3.20
2018-12-21T13:58:34.661Z,2.00
2018-12-21T14:01:02.944Z,2.03
2018-12-21T14:03:31.077Z,1.53
2018-12-21T14:05:59.281Z,1.93
2018-12-21T14:08:27.376Z,1.60
2018-12-21T14:10:55.493Z,1.80
2018-12-21T14:13:23.631Z,1.50
2018-12-21T14:15:51.780Z,1.40
2018-12-21T14:18:19.921Z,1.50
2018-12-21T14:20:48.064Z,1.40
2018-12-21T14:23:16.232Z,1.60
2018-12-21T14:25:44.542Z,1.53
2018-12-21T14:28:12.719Z,1.77
2018-12-21T14:30:40.845Z,1.60
2018-12-21T14:33:08.975Z,1.50
2018-12-21T14:35:40.660Z,1.43
2018-12-21T14:38:12.676Z,1.63
2018-12-21T14:40:44.692Z,1.90
2018-12-21T14:43:16.253Z,1.63
2018-12-21T14:45:50.616Z,1.60
2018-12-21T14:48:24.312Z,1.10
2018-12-21T14:51:04.601Z,1.70
2018-12-21T14:53:34.567Z,1.70
2018-12-21T14:56:06.446Z,1.40
2018-12-21T15:03:39.979Z,2.33
2018-12-21T15:06:11.800Z,1.70
2018-12-21T15:08:43.580Z,1.90
2018-12-21T15:11:18.060Z,1.70
2018-12-21T15:13:50.168Z,1.40
2018-12-21T15:16:24.675Z,2.90
2018-12-21T15:18:55.954Z,3.73
2018-12-21T15:21:24.230Z,2.00
2018-12-21T15:23:52.420Z,1.70
2018-12-21T15:26:20.620Z,2.60
2018-12-21T15:28:48.751Z,3.13
2018-12-21T15:31:16.944Z,2.13
2018-12-21T15:33:45.052Z,3.40
2018-12-21T15:36:13.195Z,2.17
2018-12-21T15:38:41.304Z,1.73
2018-12-21T15:41:09.511Z,2.10
2018-12-21T15:43:37.707Z,1.63
2018-12-21T15:46:05.904Z,2.27
2018-12-21T15:48:34.024Z,1.77
2018-12-21T15:51:02.166Z,1.60
2018-12-21T15:53:30.283Z,1.60
2018-12-21T15:55:58.488Z,1.50
2018-12-21T15:58:26.624Z,1.90
2018-12-21T16:00:54.761Z,1.60
2018-12-21T16:03:22.959Z,1.50
2018-12-21T16:05:51.097Z,1.60
2018-12-21T16:08:19.284Z,1.20
2018-12-21T16:10:47.572Z,1.40
2018-12-21T16:13:15.769Z,1.70
2018-12-21T16:15:43.895Z,1.63
2018-12-21T16:18:12.027Z,9.33
2018-12-21T16:20:40.164Z,2.60
2018-12-21T16:23:08.327Z,1.70
2018-12-21T16:25:36.521Z,1.50
2018-12-21T16:28:04.729Z,1.50
2018-12-21T16:30:32.855Z,1.10
2018-12-21T16:33:00.995Z,1.70
2018-12-21T16:35:29.235Z,1.37
2018-12-21T16:37:57.351Z,1.50
2018-12-21T16:40:25.480Z,1.57
2018-12-21T16:42:53.687Z,1.50
2018-12-21T16:45:21.819Z,1.30
2018-12-21T16:47:50.024Z,1.50
2018-12-21T16:50:18.312Z,1.60
2018-12-21T16:52:46.507Z,1.60
2018-12-21T16:55:14.635Z,1.33
2018-12-21T16:57:45.113Z,1.47
2018-12-21T17:00:13.954Z,1.70
2018-12-21T17:02:42.291Z,1.90
2018-12-21T17:05:10.597Z,4.30
2018-12-21T17:07:38.856Z,6.20
2018-12-21T17:10:12.251Z,3.60
2018-12-21T17:12:40.379Z,2.30
2018-12-21T17:15:09.431Z,3.20
2018-12-21T17:17:37.628Z,2.13
2018-12-21T17:20:07.210Z,1.53
2018-12-21T17:22:35.367Z,2.10
2018-12-21T17:25:03.673Z,1.80
2018-12-21T17:27:31.795Z,1.83
2018-12-21T17:29:59.974Z,1.53
2018-12-21T17:32:28.196Z,1.40
2018-12-21T17:34:56.380Z,2.30
2018-12-21T17:37:24.649Z,2.57
2018-12-21T17:39:56.185Z,2.50
2018-12-21T17:42:32.967Z,2.90
2018-12-21T17:45:06.305Z,2.53
2018-12-21T17:47:38.629Z,4.20
2018-12-21T17:50:12.513Z,2.03
2018-12-21T17:52:56.755Z,1.70
2018-12-21T17:55:24.975Z,3.20
2018-12-21T17:57:53.195Z,3.40
2018-12-21T18:03:36.190Z,3.67
2018-12-21T18:06:08.052Z,5.60
2018-12-21T18:08:42.603Z,2.30
2018-12-21T18:11:17.271Z,4.47
2018-12-21T18:13:51.881Z,2.40
2018-12-21T18:19:19.357Z,2.23
2018-12-21T18:21:56.614Z,1.97
2018-12-21T18:24:29.003Z,1.93
2018-12-21T18:27:05.055Z,2.30
2018-12-21T18:32:40.640Z,2.20
2018-12-21T18:35:19.447Z,2.67
2018-12-21T18:40:54.335Z,2.40
2018-12-21T18:43:25.174Z,1.20
2018-12-21T18:45:53.408Z,1.53
2018-12-21T18:48:27.239Z,1.67
2018-12-21T18:51:02.575Z,1.90
2018-12-21T18:53:34.428Z,2.40
2018-12-21T18:56:09.537Z,1.63
2018-12-21T18:58:38.690Z,1.83
2018-12-21T19:01:12.529Z,3.37
2018-12-21T19:03:46.535Z,2.70
2018-12-21T19:08:52.476Z,2.00
2018-12-21T19:11:28.196Z,1.90
2018-12-21T19:20:12.549Z,1.80
2018-12-21T19:25:37.356Z,2.00
2018-12-21T19:28:05.597Z,1.80
2018-12-21T19:33:26.794Z,2.87
2018-12-21T19:35:55.047Z,3.10
2018-12-21T19:38:23.216Z,2.07
2018-12-21T19:40:51.370Z,2.07
2018-12-21T19:43:27.987Z,2.10
2018-12-21T19:45:49.913Z,3.00
2018-12-21T19:48:20.178Z,5.53
2018-12-21T19:50:51.925Z,8.70
2018-12-21T19:53:21.496Z,4.70
2018-12-21T19:55:55.493Z,14.60
2018-12-21T19:58:40.048Z,6.23
2018-12-21T20:01:14.251Z,1.90
2018-12-21T20:03:42.847Z,2.10
2018-12-21T20:06:16.585Z,2.27
2018-12-21T20:08:50.813Z,6.57
2018-12-21T20:11:38.538Z,3.17
2018-12-21T20:14:13.474Z,1.83
2018-12-21T20:28:29.213Z,2.10
2018-12-21T20:31:07.364Z,2.10
2018-12-21T20:33:43.441Z,2.13
2018-12-21T20:36:11.803Z,1.53
2018-12-21T20:38:39.956Z,1.83
2018-12-21T20:41:10.308Z,1.40
2018-12-21T20:43:38.519Z,1.60
2018-12-21T20:46:08.110Z,1.50
2018-12-21T20:48:36.323Z,1.63
2018-12-21T20:51:04.479Z,1.40
2018-12-21T20:53:32.664Z,1.70
2018-12-21T20:56:01.261Z,1.70
2018-12-21T20:58:41.199Z,1.47
2018-12-21T21:01:09.395Z,1.50
2018-12-21T21:03:38.012Z,8.13
2018-12-21T21:06:06.220Z,2.50
2018-12-21T21:08:34.348Z,2.43
2018-12-21T21:11:02.616Z,2.93
2018-12-21T21:13:30.860Z,4.23
2018-12-21T21:15:59.516Z,2.20
2018-12-21T21:18:27.803Z,1.80
2018-12-21T21:20:56.071Z,1.80
2018-12-21T21:23:24.340Z,1.90
2018-12-21T21:25:52.584Z,1.63
2018-12-21T21:28:20.815Z,1.90
2018-12-21T21:30:48.998Z,1.60
2018-12-21T21:33:17.143Z,1.30
2018-12-21T21:35:45.295Z,2.10
2018-12-21T21:38:29.737Z,1.57
2018-12-21T21:41:10.693Z,2.13
2018-12-21T21:43:44.698Z,3.10
2018-12-21T21:46:22.412Z,2.87
2018-12-21T21:48:57.350Z,3.00
2018-12-21T21:54:34.934Z,1.70
2018-12-21T22:15:08.871Z,4.07
2018-12-21T22:20:45.565Z,9.40
2018-12-21T22:23:32.318Z,11.50
2018-12-21T22:26:07.344Z,38.67
2018-12-21T22:28:42.483Z,31.87
2018-12-21T22:31:14.316Z,5.93
2018-12-21T22:45:55.939Z,1.40
2018-12-21T22:48:24.095Z,1.60
2018-12-21T22:50:52.252Z,1.30
2018-12-21T22:53:20.404Z,2.50
2018-12-21T22:55:48.565Z,1.87
2018-12-21T22:58:16.725Z,1.60
2018-12-21T23:00:45.033Z,1.37
2018-12-21T23:03:13.173Z,1.47
2018-12-21T23:05:41.291Z,1.37
2018-12-21T23:08:09.445Z,1.60
2018-12-21T23:10:37.643Z,1.40
2018-12-21T23:13:05.929Z,1.50
2018-12-21T23:15:34.084Z,1.23
2018-12-21T23:18:02.371Z,1.37
2018-12-21T23:20:30.485Z,1.33
2018-12-21T23:22:58.611Z,1.67
2018-12-21T23:25:26.820Z,2.00
2018-12-21T23:27:55.040Z,3.60
2018-12-21T23:30:23.280Z,1.70
2018-12-21T23:32:51.487Z,3.90
2018-12-21T23:35:19.620Z,2.50
2018-12-21T23:37:47.846Z,1.80
2018-12-21T23:40:16.059Z,1.77
2018-12-21T23:42:44.179Z,2.20
2018-12-21T23:45:12.575Z,3.70
2018-12-21T23:47:40.736Z,2.43
2018-12-21T23:50:08.962Z,2.07
2018-12-21T23:52:37.250Z,1.80
2018-12-21T23:55:05.939Z,1.50
2018-12-21T23:57:34.160Z,1.30
